sensor_id;sensor_type;location;lat;lon;timestamp;P1;durP1;ratioP1;P2;durP2;ratioP2
36497;SDS011;22513;51.222;6.480;2022-08-04T00:00:19;6.10;;;2.03;;
36497;SDS011;22513;51.222;6.480;2022-08-04T00:08:19;6.78;;;2.25;;
36497;SDS011;22513;51.222;6.480;2022-08-04T00:10:49;8.50;;;2.97;;
36497;SDS011;22513;51.222;6.480;2022-08-04T00:13:22;4.82;;;1.52;;
36497;SDS011;22513;51.222;6.480;2022-08-04T00:15:53;6.15;;;1.88;;
36497;SDS011;22513;51.222;6.480;2022-08-04T00:18:25;8.02;;;2.67;;
36497;SDS011;22513;51.222;6.480;2022-08-04T00:20:55;6.35;;;2.42;;
36497;SDS011;22513;51.222;6.480;2022-08-04T00:23:23;8.80;;;2.20;;
36497;SDS011;22513;51.222;6.480;2022-08-04T00:25:50;6.68;;;2.72;;
36497;SDS011;22513;51.222;6.480;2022-08-04T00:28:17;6.10;;;2.33;;
36497;SDS011;22513;51.222;6.480;2022-08-04T00:30:44;7.13;;;2.53;;
36497;SDS011;22513;51.222;6.480;2022-08-04T00:33:09;6.32;;;2.10;;
36497;SDS011;22513;51.222;6.480;2022-08-04T00:35:37;5.80;;;2.33;;
36497;SDS011;22513;51.222;6.480;2022-08-04T00:38:03;9.73;;;2.50;;
36497;SDS011;22513;51.222;6.480;2022-08-04T00:40:32;6.22;;;2.50;;
36497;SDS011;22513;51.222;6.480;2022-08-04T00:43:15;9.87;;;2.70;;
36497;SDS011;22513;51.222;6.480;2022-08-04T00:48:54;7.70;;;1.70;;
36497;SDS011;22513;51.222;6.480;2022-08-04T00:51:42;8.15;;;2.67;;
36497;SDS011;22513;51.222;6.480;2022-08-04T00:54:17;6.78;;;2.03;;
36497;SDS011;22513;51.222;6.480;2022-08-04T01:06:08;5.25;;;1.98;;
36497;SDS011;22513;51.222;6.480;2022-08-04T01:08:27;7.97;;;2.15;;
36497;SDS011;22513;51.222;6.480;2022-08-04T01:11:03;9.23;;;1.92;;
36497;SDS011;22513;51.222;6.480;2022-08-04T01:16:13;6.38;;;2.20;;
36497;SDS011;22513;51.222;6.480;2022-08-04T01:29:55;5.00;;;2.20;;
36497;SDS011;22513;51.222;6.480;2022-08-04T01:40:33;4.13;;;2.00;;
36497;SDS011;22513;51.222;6.480;2022-08-04T01:43:02;9.68;;;2.90;;
36497;SDS011;22513;51.222;6.480;2022-08-04T01:45:29;7.68;;;2.22;;
36497;SDS011;22513;51.222;6.480;2022-08-04T01:47:55;6.18;;;2.58;;
36497;SDS011;22513;51.222;6.480;2022-08-04T01:50:21;7.55;;;3.05;;
36497;SDS011;22513;51.222;6.480;2022-08-04T01:52:51;9.00;;;3.92;;
36497;SDS011;22513;51.222;6.480;2022-08-04T01:55:17;9.18;;;3.40;;
36497;SDS011;22513;51.222;6.480;2022-08-04T02:00:10;13.13;;;3.03;;
36497;SDS011;22513;51.222;6.480;2022-08-04T02:02:48;9.33;;;3.30;;
36497;SDS011;22513;51.222;6.480;2022-08-04T02:05:15;4.93;;;2.80;;
36497;SDS011;22513;51.222;6.480;2022-08-04T02:13:26;6.20;;;3.05;;
36497;SDS011;22513;51.222;6.480;2022-08-04T02:16:49;9.13;;;3.22;;
36497;SDS011;22513;51.222;6.480;2022-08-04T02:19:16;9.02;;;3.80;;
36497;SDS011;22513;51.222;6.480;2022-08-04T02:21:54;10.38;;;2.47;;
36497;SDS011;22513;51.222;6.480;2022-08-04T02:24:25;6.20;;;2.47;;
36497;SDS011;22513;51.222;6.480;2022-08-04T02:26:53;8.15;;;2.80;;
36497;SDS011;22513;51.222;6.480;2022-08-04T02:35:05;15.88;;;3.40;;
36497;SDS011;22513;51.222;6.480;2022-08-04T02:37:30;7.38;;;3.05;;
36497;SDS011;22513;51.222;6.480;2022-08-04T02:39:57;8.27;;;2.75;;
36497;SDS011;22513;51.222;6.480;2022-08-04T02:42:25;6.40;;;2.65;;
36497;SDS011;22513;51.222;6.480;2022-08-04T02:44:53;12.18;;;2.83;;
36497;SDS011;22513;51.222;6.480;2022-08-04T02:49:49;6.32;;;2.28;;
36497;SDS011;22513;51.222;6.480;2022-08-04T02:52:15;9.63;;;2.90;;
36497;SDS011;22513;51.222;6.480;2022-08-04T02:54:43;8.07;;;3.53;;
36497;SDS011;22513;51.222;6.480;2022-08-04T02:57:11;9.75;;;3.42;;
36497;SDS011;22513;51.222;6.480;2022-08-04T02:59:59;10.27;;;3.20;;
36497;SDS011;22513;51.222;6.480;2022-08-04T03:02:33;5.95;;;2.97;;
36497;SDS011;22513;51.222;6.480;2022-08-04T03:05:23;10.13;;;2.83;;
36497;SDS011;22513;51.222;6.480;2022-08-04T03:16:50;8.77;;;2.90;;
36497;SDS011;22513;51.222;6.480;2022-08-04T03:25:08;6.03;;;3.65;;
36497;SDS011;22513;51.222;6.480;2022-08-04T03:30:56;7.82;;;3.13;;
36497;SDS011;22513;51.222;6.480;2022-08-04T03:58:25;13.75;;;5.47;;
36497;SDS011;22513;51.222;6.480;2022-08-04T04:03:48;9.75;;;3.88;;
36497;SDS011;22513;51.222;6.480;2022-08-04T04:14:56;7.03;;;3.40;;
36497;SDS011;22513;51.222;6.480;2022-08-04T04:23:20;9.80;;;2.80;;
36497;SDS011;22513;51.222;6.480;2022-08-04T04:28:28;7.40;;;2.95;;
36497;SDS011;22513;51.222;6.480;2022-08-04T04:33:51;7.30;;;3.28;;
36497;SDS011;22513;51.222;6.480;2022-08-04T04:36:49;5.75;;;3.53;;
36497;SDS011;22513;51.222;6.480;2022-08-04T04:45:40;8.70;;;3.13;;
36497;SDS011;22513;51.222;6.480;2022-08-04T04:53:59;6.13;;;2.70;;
36497;SDS011;22513;51.222;6.480;2022-08-04T04:56:42;5.72;;;2.50;;
36497;SDS011;22513;51.222;6.480;2022-08-04T04:59:19;7.65;;;2.65;;
36497;SDS011;22513;51.222;6.480;2022-08-04T05:15:43;9.10;;;2.50;;
36497;SDS011;22513;51.222;6.480;2022-08-04T05:18:13;9.70;;;2.88;;
36497;SDS011;22513;51.222;6.480;2022-08-04T05:20:45;6.00;;;2.35;;
36497;SDS011;22513;51.222;6.480;2022-08-04T05:23:16;4.95;;;2.72;;
36497;SDS011;22513;51.222;6.480;2022-08-04T05:26:00;5.53;;;2.53;;
36497;SDS011;22513;51.222;6.480;2022-08-04T05:28:37;6.90;;;2.40;;
36497;SDS011;22513;51.222;6.480;2022-08-04T05:31:07;8.50;;;2.63;;
36497;SDS011;22513;51.222;6.480;2022-08-04T05:33:39;8.57;;;2.22;;
36497;SDS011;22513;51.222;6.480;2022-08-04T05:36:14;7.55;;;2.60;;
36497;SDS011;22513;51.222;6.480;2022-08-04T05:38:42;8.85;;;2.72;;
36497;SDS011;22513;51.222;6.480;2022-08-04T05:41:13;10.73;;;2.45;;
36497;SDS011;22513;51.222;6.480;2022-08-04T05:43:41;5.78;;;2.47;;
36497;SDS011;22513;51.222;6.480;2022-08-04T05:46:08;4.95;;;2.75;;
36497;SDS011;22513;51.222;6.480;2022-08-04T05:48:36;6.43;;;2.53;;
36497;SDS011;22513;51.222;6.480;2022-08-04T05:51:03;6.10;;;2.85;;
36497;SDS011;22513;51.222;6.480;2022-08-04T05:53:33;7.80;;;2.63;;
36497;SDS011;22513;51.222;6.480;2022-08-04T05:55:59;13.55;;;2.83;;
36497;SDS011;22513;51.222;6.480;2022-08-04T05:58:28;7.20;;;2.63;;
36497;SDS011;22513;51.222;6.480;2022-08-04T06:00:55;5.28;;;2.70;;
36497;SDS011;22513;51.222;6.480;2022-08-04T06:03:23;8.10;;;2.70;;
36497;SDS011;22513;51.222;6.480;2022-08-04T06:05:51;8.07;;;3.03;;
36497;SDS011;22513;51.222;6.480;2022-08-04T06:08:18;10.68;;;2.83;;
36497;SDS011;22513;51.222;6.480;2022-08-04T06:10:44;11.25;;;3.10;;
36497;SDS011;22513;51.222;6.480;2022-08-04T06:13:14;6.30;;;2.70;;
36497;SDS011;22513;51.222;6.480;2022-08-04T06:15:43;10.05;;;3.03;;
36497;SDS011;22513;51.222;6.480;2022-08-04T06:20:38;8.57;;;2.58;;
36497;SDS011;22513;51.222;6.480;2022-08-04T06:23:07;8.40;;;2.95;;
36497;SDS011;22513;51.222;6.480;2022-08-04T06:25:40;7.22;;;2.88;;
36497;SDS011;22513;51.222;6.480;2022-08-04T06:28:10;6.43;;;2.95;;
36497;SDS011;22513;51.222;6.480;2022-08-04T06:30:37;6.85;;;2.63;;
36497;SDS011;22513;51.222;6.480;2022-08-04T06:33:05;6.72;;;2.58;;
36497;SDS011;22513;51.222;6.480;2022-08-04T06:35:49;7.95;;;3.20;;
36497;SDS011;22513;51.222;6.480;2022-08-04T06:38:20;9.48;;;2.90;;
36497;SDS011;22513;51.222;6.480;2022-08-04T06:43:13;8.95;;;2.40;;
36497;SDS011;22513;51.222;6.480;2022-08-04T06:45:39;8.02;;;2.78;;
36497;SDS011;22513;51.222;6.480;2022-08-04T06:48:06;5.55;;;2.75;;
36497;SDS011;22513;51.222;6.480;2022-08-04T06:50:36;7.72;;;2.75;;
36497;SDS011;22513;51.222;6.480;2022-08-04T06:53:03;7.55;;;2.33;;
36497;SDS011;22513;51.222;6.480;2022-08-04T06:55:29;8.98;;;2.97;;
36497;SDS011;22513;51.222;6.480;2022-08-04T06:57:56;8.85;;;2.15;;
36497;SDS011;22513;51.222;6.480;2022-08-04T07:00:23;6.00;;;2.05;;
36497;SDS011;22513;51.222;6.480;2022-08-04T07:02:49;5.07;;;2.22;;
36497;SDS011;22513;51.222;6.480;2022-08-04T07:05:17;6.10;;;2.25;;
36497;SDS011;22513;51.222;6.480;2022-08-04T07:07:44;7.43;;;2.80;;
36497;SDS011;22513;51.222;6.480;2022-08-04T07:10:10;5.72;;;2.15;;
36497;SDS011;22513;51.222;6.480;2022-08-04T07:12:37;9.00;;;2.53;;
36497;SDS011;22513;51.222;6.480;2022-08-04T07:15:04;5.07;;;2.08;;
36497;SDS011;22513;51.222;6.480;2022-08-04T07:17:30;6.38;;;2.38;;
36497;SDS011;22513;51.222;6.480;2022-08-04T07:19:57;6.88;;;2.33;;
36497;SDS011;22513;51.222;6.480;2022-08-04T07:22:24;5.82;;;2.42;;
36497;SDS011;22513;51.222;6.480;2022-08-04T07:24:54;4.70;;;1.80;;
36497;SDS011;22513;51.222;6.480;2022-08-04T07:27:21;8.60;;;2.28;;
36497;SDS011;22513;51.222;6.480;2022-08-04T07:29:47;7.10;;;2.20;;
36497;SDS011;22513;51.222;6.480;2022-08-04T07:32:15;7.00;;;3.13;;
36497;SDS011;22513;51.222;6.480;2022-08-04T07:34:42;6.68;;;2.38;;
36497;SDS011;22513;51.222;6.480;2022-08-04T07:37:09;6.03;;;2.40;;
36497;SDS011;22513;51.222;6.480;2022-08-04T07:39:35;5.75;;;2.20;;
36497;SDS011;22513;51.222;6.480;2022-08-04T07:42:01;11.15;;;2.90;;
36497;SDS011;22513;51.222;6.480;2022-08-04T07:44:31;8.55;;;2.58;;
36497;SDS011;22513;51.222;6.480;2022-08-04T07:46:58;4.93;;;2.75;;
36497;SDS011;22513;51.222;6.480;2022-08-04T07:49:25;8.00;;;2.38;;
36497;SDS011;22513;51.222;6.480;2022-08-04T07:51:52;6.50;;;2.53;;
36497;SDS011;22513;51.222;6.480;2022-08-04T07:54:18;7.80;;;2.55;;
36497;SDS011;22513;51.222;6.480;2022-08-04T07:56:44;8.88;;;2.30;;
36497;SDS011;22513;51.222;6.480;2022-08-04T07:59:13;5.28;;;2.05;;
36497;SDS011;22513;51.222;6.480;2022-08-04T08:01:42;6.88;;;1.92;;
36497;SDS011;22513;51.222;6.480;2022-08-04T08:04:09;5.88;;;2.22;;
36497;SDS011;22513;51.222;6.480;2022-08-04T08:06:36;5.88;;;2.20;;
36497;SDS011;22513;51.222;6.480;2022-08-04T08:09:11;6.95;;;2.67;;
36497;SDS011;22513;51.222;6.480;2022-08-04T08:11:38;7.20;;;1.90;;
36497;SDS011;22513;51.222;6.480;2022-08-04T08:14:04;6.32;;;1.67;;
36497;SDS011;22513;51.222;6.480;2022-08-04T08:16:32;7.97;;;1.80;;
36497;SDS011;22513;51.222;6.480;2022-08-04T08:18:59;6.82;;;1.83;;
36497;SDS011;22513;51.222;6.480;2022-08-04T08:21:25;9.25;;;1.95;;
36497;SDS011;22513;51.222;6.480;2022-08-04T08:23:51;4.03;;;1.50;;
36497;SDS011;22513;51.222;6.480;2022-08-04T08:26:17;9.55;;;2.28;;
36497;SDS011;22513;51.222;6.480;2022-08-04T08:28:43;9.23;;;2.25;;
36497;SDS011;22513;51.222;6.480;2022-08-04T08:31:09;12.50;;;2.78;;
36497;SDS011;22513;51.222;6.480;2022-08-04T08:33:35;4.50;;;1.90;;
36497;SDS011;22513;51.222;6.480;2022-08-04T08:44:16;10.02;;;2.03;;
36497;SDS011;22513;51.222;6.480;2022-08-04T08:50:22;11.57;;;2.72;;
36497;SDS011;22513;51.222;6.480;2022-08-04T08:53:12;8.00;;;1.63;;
36497;SDS011;22513;51.222;6.480;2022-08-04T08:56:10;7.35;;;2.15;;
36497;SDS011;22513;51.222;6.480;2022-08-04T08:59:11;11.23;;;2.00;;
36497;SDS011;22513;51.222;6.480;2022-08-04T09:01:54;12.80;;;2.10;;
36497;SDS011;22513;51.222;6.480;2022-08-04T09:17:39;8.07;;;1.70;;
36497;SDS011;22513;51.222;6.480;2022-08-04T09:20:14;7.93;;;1.45;;
36497;SDS011;22513;51.222;6.480;2022-08-04T09:22:51;6.03;;;1.60;;
36497;SDS011;22513;51.222;6.480;2022-08-04T09:25:26;4.63;;;1.58;;
36497;SDS011;22513;51.222;6.480;2022-08-04T09:31:05;6.25;;;1.80;;
36497;SDS011;22513;51.222;6.480;2022-08-04T10:00:59;5.95;;;2.17;;
36497;SDS011;22513;51.222;6.480;2022-08-04T10:03:29;6.00;;;1.33;;
36497;SDS011;22513;51.222;6.480;2022-08-04T10:09:07;3.33;;;1.48;;
36497;SDS011;22513;51.222;6.480;2022-08-04T10:12:02;6.03;;;1.98;;
36497;SDS011;22513;51.222;6.480;2022-08-04T10:24:00;3.42;;;2.08;;
36497;SDS011;22513;51.222;6.480;2022-08-04T10:26:41;8.82;;;1.90;;
36497;SDS011;22513;51.222;6.480;2022-08-04T10:28:45;3.75;;;1.55;;
36497;SDS011;22513;51.222;6.480;2022-08-04T10:31:28;5.75;;;1.95;;
36497;SDS011;22513;51.222;6.480;2022-08-04T10:34:02;6.45;;;1.80;;
36497;SDS011;22513;51.222;6.480;2022-08-04T10:36:40;6.53;;;1.90;;
36497;SDS011;22513;51.222;6.480;2022-08-04T10:39:16;5.57;;;2.13;;
36497;SDS011;22513;51.222;6.480;2022-08-04T10:42:07;5.50;;;1.88;;
36497;SDS011;22513;51.222;6.480;2022-08-04T10:47:23;5.35;;;1.88;;
36497;SDS011;22513;51.222;6.480;2022-08-04T10:49:54;5.85;;;1.85;;
36497;SDS011;22513;51.222;6.480;2022-08-04T10:52:25;10.70;;;1.90;;
36497;SDS011;22513;51.222;6.480;2022-08-04T10:55:14;7.72;;;1.95;;
36497;SDS011;22513;51.222;6.480;2022-08-04T10:57:47;3.72;;;1.60;;
36497;SDS011;22513;51.222;6.480;2022-08-04T11:00:26;7.25;;;1.60;;
36497;SDS011;22513;51.222;6.480;2022-08-04T11:13:25;5.47;;;1.40;;
36497;SDS011;22513;51.222;6.480;2022-08-04T11:16:01;7.40;;;1.80;;
36497;SDS011;22513;51.222;6.480;2022-08-04T11:19:15;5.43;;;1.58;;
36497;SDS011;22513;51.222;6.480;2022-08-04T11:21:31;4.25;;;1.80;;
36497;SDS011;22513;51.222;6.480;2022-08-04T11:24:04;5.63;;;1.45;;
36497;SDS011;22513;51.222;6.480;2022-08-04T11:26:43;2.63;;;1.50;;
36497;SDS011;22513;51.222;6.480;2022-08-04T11:31:48;7.88;;;2.15;;
36497;SDS011;22513;51.222;6.480;2022-08-04T11:34:24;3.72;;;1.75;;
36497;SDS011;22513;51.222;6.480;2022-08-04T11:36:57;2.65;;;1.25;;
36497;SDS011;22513;51.222;6.480;2022-08-04T11:39:26;5.78;;;1.75;;
36497;SDS011;22513;51.222;6.480;2022-08-04T11:44:29;5.38;;;1.73;;
36497;SDS011;22513;51.222;6.480;2022-08-04T11:49:48;4.65;;;1.50;;
36497;SDS011;22513;51.222;6.480;2022-08-04T11:54:45;7.68;;;2.17;;
36497;SDS011;22513;51.222;6.480;2022-08-04T11:57:13;6.00;;;1.80;;
36497;SDS011;22513;51.222;6.480;2022-08-04T11:59:39;7.22;;;2.20;;
36497;SDS011;22513;51.222;6.480;2022-08-04T12:13:05;6.25;;;1.88;;
36497;SDS011;22513;51.222;6.480;2022-08-04T12:15:47;4.70;;;2.00;;
36497;SDS011;22513;51.222;6.480;2022-08-04T12:18:37;4.03;;;1.58;;
36497;SDS011;22513;51.222;6.480;2022-08-04T12:21:07;9.98;;;1.90;;
36497;SDS011;22513;51.222;6.480;2022-08-04T12:23:39;4.22;;;1.85;;
36497;SDS011;22513;51.222;6.480;2022-08-04T12:26:06;4.97;;;1.65;;
36497;SDS011;22513;51.222;6.480;2022-08-04T12:28:35;8.18;;;2.22;;
36497;SDS011;22513;51.222;6.480;2022-08-04T12:31:08;4.22;;;2.35;;
36497;SDS011;22513;51.222;6.480;2022-08-04T12:33:43;6.22;;;2.42;;
36497;SDS011;22513;51.222;6.480;2022-08-04T12:38:48;10.65;;;2.58;;
36497;SDS011;22513;51.222;6.480;2022-08-04T12:41:24;11.45;;;2.67;;
36497;SDS011;22513;51.222;6.480;2022-08-04T12:54:15;5.65;;;2.78;;
36497;SDS011;22513;51.222;6.480;2022-08-04T12:56:49;8.85;;;2.80;;
36497;SDS011;22513;51.222;6.480;2022-08-04T12:59:16;5.03;;;2.33;;
36497;SDS011;22513;51.222;6.480;2022-08-04T13:01:48;7.10;;;3.03;;
36497;SDS011;22513;51.222;6.480;2022-08-04T13:04:19;6.68;;;3.50;;
36497;SDS011;22513;51.222;6.480;2022-08-04T13:06:54;7.53;;;2.95;;
36497;SDS011;22513;51.222;6.480;2022-08-04T13:09:25;7.65;;;3.58;;
36497;SDS011;22513;51.222;6.480;2022-08-04T13:11:58;11.48;;;2.85;;
36497;SDS011;22513;51.222;6.480;2022-08-04T13:14:31;5.32;;;2.17;;
36497;SDS011;22513;51.222;6.480;2022-08-04T13:16:59;4.05;;;2.25;;
36497;SDS011;22513;51.222;6.480;2022-08-04T13:19:26;7.15;;;2.88;;
36497;SDS011;22513;51.222;6.480;2022-08-04T13:21:53;4.97;;;2.47;;
36497;SDS011;22513;51.222;6.480;2022-08-04T13:24:21;5.70;;;2.50;;
36497;SDS011;22513;51.222;6.480;2022-08-04T13:26:56;4.53;;;2.75;;
36497;SDS011;22513;51.222;6.480;2022-08-04T13:29:28;6.15;;;2.42;;
36497;SDS011;22513;51.222;6.480;2022-08-04T13:31:59;8.75;;;2.97;;
36497;SDS011;22513;51.222;6.480;2022-08-04T13:34:26;6.60;;;3.25;;
36497;SDS011;22513;51.222;6.480;2022-08-04T13:36:53;7.28;;;2.58;;
36497;SDS011;22513;51.222;6.480;2022-08-04T13:39:20;6.30;;;2.55;;
36497;SDS011;22513;51.222;6.480;2022-08-04T13:41:49;4.15;;;2.38;;
36497;SDS011;22513;51.222;6.480;2022-08-04T13:44:19;5.55;;;2.45;;
36497;SDS011;22513;51.222;6.480;2022-08-04T13:47:07;6.53;;;2.90;;
36497;SDS011;22513;51.222;6.480;2022-08-04T13:49:36;8.18;;;3.00;;
36497;SDS011;22513;51.222;6.480;2022-08-04T13:52:03;7.05;;;3.75;;
36497;SDS011;22513;51.222;6.480;2022-08-04T13:54:36;7.82;;;2.70;;
36497;SDS011;22513;51.222;6.480;2022-08-04T13:57:07;6.03;;;2.90;;
36497;SDS011;22513;51.222;6.480;2022-08-04T13:59:51;4.93;;;2.60;;
36497;SDS011;22513;51.222;6.480;2022-08-04T14:02:31;8.13;;;2.70;;
36497;SDS011;22513;51.222;6.480;2022-08-04T14:05:00;6.97;;;2.55;;
36497;SDS011;22513;51.222;6.480;2022-08-04T14:07:31;5.18;;;2.45;;
36497;SDS011;22513;51.222;6.480;2022-08-04T14:10:09;6.53;;;2.90;;
36497;SDS011;22513;51.222;6.480;2022-08-04T14:12:42;6.95;;;2.58;;
36497;SDS011;22513;51.222;6.480;2022-08-04T14:23:50;5.78;;;2.00;;
36497;SDS011;22513;51.222;6.480;2022-08-04T14:28:46;5.15;;;1.63;;
36497;SDS011;22513;51.222;6.480;2022-08-04T14:31:14;6.40;;;1.90;;
36497;SDS011;22513;51.222;6.480;2022-08-04T14:33:45;4.43;;;2.00;;
36497;SDS011;22513;51.222;6.480;2022-08-04T14:36:14;4.13;;;1.70;;
36497;SDS011;22513;51.222;6.480;2022-08-04T14:38:41;5.95;;;2.38;;
36497;SDS011;22513;51.222;6.480;2022-08-04T14:41:13;6.57;;;2.50;;
36497;SDS011;22513;51.222;6.480;2022-08-04T14:43:44;6.70;;;2.03;;
36497;SDS011;22513;51.222;6.480;2022-08-04T14:46:11;5.18;;;2.65;;
36497;SDS011;22513;51.222;6.480;2022-08-04T14:48:37;5.72;;;2.13;;
36497;SDS011;22513;51.222;6.480;2022-08-04T14:51:04;8.05;;;2.60;;
36497;SDS011;22513;51.222;6.480;2022-08-04T14:53:36;5.20;;;2.17;;
36497;SDS011;22513;51.222;6.480;2022-08-04T14:56:02;5.85;;;2.30;;
36497;SDS011;22513;51.222;6.480;2022-08-04T14:58:30;7.10;;;2.15;;
36497;SDS011;22513;51.222;6.480;2022-08-04T15:01:02;5.95;;;2.50;;
36497;SDS011;22513;51.222;6.480;2022-08-04T15:03:30;6.65;;;2.17;;
36497;SDS011;22513;51.222;6.480;2022-08-04T15:05:57;3.97;;;1.90;;
36497;SDS011;22513;51.222;6.480;2022-08-04T15:08:24;6.90;;;2.10;;
36497;SDS011;22513;51.222;6.480;2022-08-04T15:10:52;5.78;;;3.00;;
36497;SDS011;22513;51.222;6.480;2022-08-04T15:13:22;6.78;;;2.55;;
36497;SDS011;22513;51.222;6.480;2022-08-04T15:15:48;5.30;;;2.08;;
36497;SDS011;22513;51.222;6.480;2022-08-04T15:18:14;6.28;;;2.25;;
36497;SDS011;22513;51.222;6.480;2022-08-04T15:20:40;3.25;;;2.20;;
36497;SDS011;22513;51.222;6.480;2022-08-04T15:23:07;8.15;;;2.47;;
36497;SDS011;22513;51.222;6.480;2022-08-04T15:25:36;4.07;;;2.50;;
36497;SDS011;22513;51.222;6.480;2022-08-04T15:28:05;6.25;;;2.38;;
36497;SDS011;22513;51.222;6.480;2022-08-04T15:30:36;7.13;;;2.50;;
36497;SDS011;22513;51.222;6.480;2022-08-04T15:33:02;9.38;;;2.80;;
36497;SDS011;22513;51.222;6.480;2022-08-04T15:35:30;8.60;;;2.80;;
36497;SDS011;22513;51.222;6.480;2022-08-04T15:40:29;11.48;;;3.38;;
36497;SDS011;22513;51.222;6.480;2022-08-04T15:45:31;8.30;;;3.00;;
36497;SDS011;22513;51.222;6.480;2022-08-04T15:58:48;7.72;;;3.38;;
36497;SDS011;22513;51.222;6.480;2022-08-04T16:01:18;8.88;;;3.63;;
36497;SDS011;22513;51.222;6.480;2022-08-04T16:03:49;7.43;;;3.58;;
36497;SDS011;22513;51.222;6.480;2022-08-04T16:16:28;11.57;;;4.75;;
36497;SDS011;22513;51.222;6.480;2022-08-04T16:19:20;9.57;;;4.30;;
36497;SDS011;22513;51.222;6.480;2022-08-04T16:21:48;7.68;;;4.60;;
36497;SDS011;22513;51.222;6.480;2022-08-04T16:34:53;7.90;;;4.35;;
36497;SDS011;22513;51.222;6.480;2022-08-04T16:37:34;9.48;;;4.20;;
36497;SDS011;22513;51.222;6.480;2022-08-04T16:42:53;11.10;;;4.65;;
36497;SDS011;22513;51.222;6.480;2022-08-04T16:45:22;11.73;;;4.20;;
36497;SDS011;22513;51.222;6.480;2022-08-04T16:48:07;9.73;;;4.07;;
36497;SDS011;22513;51.222;6.480;2022-08-04T16:50:43;8.15;;;3.83;;
36497;SDS011;22513;51.222;6.480;2022-08-04T16:53:14;9.52;;;3.20;;
36497;SDS011;22513;51.222;6.480;2022-08-04T16:55:48;5.35;;;2.95;;
36497;SDS011;22513;51.222;6.480;2022-08-04T16:58:16;5.65;;;2.92;;
36497;SDS011;22513;51.222;6.480;2022-08-04T17:00:47;8.73;;;3.20;;
36497;SDS011;22513;51.222;6.480;2022-08-04T17:03:14;8.57;;;3.22;;
36497;SDS011;22513;51.222;6.480;2022-08-04T17:05:40;6.13;;;2.70;;
36497;SDS011;22513;51.222;6.480;2022-08-04T17:08:06;9.63;;;3.38;;
36497;SDS011;22513;51.222;6.480;2022-08-04T17:13:01;8.18;;;2.65;;
36497;SDS011;22513;51.222;6.480;2022-08-04T17:15:46;5.95;;;2.75;;
36497;SDS011;22513;51.222;6.480;2022-08-04T17:18:16;9.38;;;3.13;;
36497;SDS011;22513;51.222;6.480;2022-08-04T17:20:44;8.23;;;2.80;;
36497;SDS011;22513;51.222;6.480;2022-08-04T17:25:59;5.20;;;2.92;;
36497;SDS011;22513;51.222;6.480;2022-08-04T17:28:27;5.07;;;3.15;;
36497;SDS011;22513;51.222;6.480;2022-08-04T17:30:53;7.70;;;3.03;;
36497;SDS011;22513;51.222;6.480;2022-08-04T17:33:22;9.18;;;4.03;;
36497;SDS011;22513;51.222;6.480;2022-08-04T17:35:48;6.28;;;3.33;;
36497;SDS011;22513;51.222;6.480;2022-08-04T17:38:14;11.25;;;3.90;;
36497;SDS011;22513;51.222;6.480;2022-08-04T17:40:57;14.20;;;6.07;;
36497;SDS011;22513;51.222;6.480;2022-08-04T17:48:45;16.42;;;8.45;;
36497;SDS011;22513;51.222;6.480;2022-08-04T17:51:18;7.97;;;3.92;;
36497;SDS011;22513;51.222;6.480;2022-08-04T17:53:44;10.07;;;3.78;;
36497;SDS011;22513;51.222;6.480;2022-08-04T17:59:18;12.00;;;4.55;;
36497;SDS011;22513;51.222;6.480;2022-08-04T18:04:27;5.45;;;3.25;;
36497;SDS011;22513;51.222;6.480;2022-08-04T18:07:14;6.07;;;3.25;;
36497;SDS011;22513;51.222;6.480;2022-08-04T18:09:40;5.35;;;2.40;;
36497;SDS011;22513;51.222;6.480;2022-08-04T18:12:20;7.20;;;3.15;;
36497;SDS011;22513;51.222;6.480;2022-08-04T18:14:53;8.30;;;3.10;;
36497;SDS011;22513;51.222;6.480;2022-08-04T18:20:02;5.50;;;2.80;;
36497;SDS011;22513;51.222;6.480;2022-08-04T18:22:29;5.95;;;2.88;;
36497;SDS011;22513;51.222;6.480;2022-08-04T18:24:55;6.97;;;2.25;;
36497;SDS011;22513;51.222;6.480;2022-08-04T18:27:22;5.47;;;2.40;;
36497;SDS011;22513;51.222;6.480;2022-08-04T18:29:49;5.40;;;2.25;;
36497;SDS011;22513;51.222;6.480;2022-08-04T18:32:15;6.60;;;2.33;;
36497;SDS011;22513;51.222;6.480;2022-08-04T18:34:41;7.22;;;2.63;;
36497;SDS011;22513;51.222;6.480;2022-08-04T18:37:07;5.05;;;2.60;;
36497;SDS011;22513;51.222;6.480;2022-08-04T18:39:33;7.30;;;2.83;;
36497;SDS011;22513;51.222;6.480;2022-08-04T18:41:58;3.63;;;2.20;;
36497;SDS011;22513;51.222;6.480;2022-08-04T18:44:24;5.45;;;2.33;;
36497;SDS011;22513;51.222;6.480;2022-08-04T18:46:51;5.28;;;2.30;;
36497;SDS011;22513;51.222;6.480;2022-08-04T18:49:17;7.50;;;2.88;;
36497;SDS011;22513;51.222;6.480;2022-08-04T18:51:44;8.00;;;2.63;;
36497;SDS011;22513;51.222;6.480;2022-08-04T18:54:10;6.68;;;2.28;;
36497;SDS011;22513;51.222;6.480;2022-08-04T18:56:36;4.55;;;2.47;;
36497;SDS011;22513;51.222;6.480;2022-08-04T18:59:03;6.78;;;2.42;;
36497;SDS011;22513;51.222;6.480;2022-08-04T19:01:30;6.03;;;2.67;;
36497;SDS011;22513;51.222;6.480;2022-08-04T19:03:56;5.47;;;2.70;;
36497;SDS011;22513;51.222;6.480;2022-08-04T19:06:21;11.52;;;2.92;;
36497;SDS011;22513;51.222;6.480;2022-08-04T19:08:47;8.25;;;2.20;;
36497;SDS011;22513;51.222;6.480;2022-08-04T19:11:13;5.32;;;2.53;;
36497;SDS011;22513;51.222;6.480;2022-08-04T19:13:39;3.88;;;2.50;;
36497;SDS011;22513;51.222;6.480;2022-08-04T19:16:05;5.78;;;2.60;;
36497;SDS011;22513;51.222;6.480;2022-08-04T19:18:31;8.35;;;2.75;;
36497;SDS011;22513;51.222;6.480;2022-08-04T19:20:57;6.15;;;2.97;;
36497;SDS011;22513;51.222;6.480;2022-08-04T19:23:23;9.60;;;2.70;;
36497;SDS011;22513;51.222;6.480;2022-08-04T19:25:49;6.53;;;2.88;;
36497;SDS011;22513;51.222;6.480;2022-08-04T19:28:15;4.30;;;2.88;;
36497;SDS011;22513;51.222;6.480;2022-08-04T19:30:41;6.40;;;2.40;;
36497;SDS011;22513;51.222;6.480;2022-08-04T19:33:07;7.15;;;2.92;;
36497;SDS011;22513;51.222;6.480;2022-08-04T19:35:33;7.95;;;2.58;;
36497;SDS011;22513;51.222;6.480;2022-08-04T19:37:59;5.45;;;3.10;;
36497;SDS011;22513;51.222;6.480;2022-08-04T19:40:24;6.80;;;2.92;;
36497;SDS011;22513;51.222;6.480;2022-08-04T19:42:50;6.95;;;3.10;;
36497;SDS011;22513;51.222;6.480;2022-08-04T19:45:16;10.27;;;3.72;;
36497;SDS011;22513;51.222;6.480;2022-08-04T19:47:43;6.43;;;3.15;;
36497;SDS011;22513;51.222;6.480;2022-08-04T19:50:09;9.48;;;3.90;;
36497;SDS011;22513;51.222;6.480;2022-08-04T19:52:34;4.90;;;3.15;;
36497;SDS011;22513;51.222;6.480;2022-08-04T19:55:00;7.43;;;3.05;;
36497;SDS011;22513;51.222;6.480;2022-08-04T19:57:26;6.95;;;2.92;;
36497;SDS011;22513;51.222;6.480;2022-08-04T19:59:53;8.93;;;2.90;;
36497;SDS011;22513;51.222;6.480;2022-08-04T20:02:18;6.32;;;3.67;;
36497;SDS011;22513;51.222;6.480;2022-08-04T20:04:44;8.50;;;3.00;;
36497;SDS011;22513;51.222;6.480;2022-08-04T20:07:09;7.10;;;2.90;;
36497;SDS011;22513;51.222;6.480;2022-08-04T20:09:35;6.05;;;3.13;;
36497;SDS011;22513;51.222;6.480;2022-08-04T20:12:01;5.78;;;2.60;;
36497;SDS011;22513;51.222;6.480;2022-08-04T20:14:26;5.82;;;2.85;;
36497;SDS011;22513;51.222;6.480;2022-08-04T20:16:52;9.75;;;3.33;;
36497;SDS011;22513;51.222;6.480;2022-08-04T20:19:18;8.10;;;3.13;;
36497;SDS011;22513;51.222;6.480;2022-08-04T20:21:44;5.65;;;3.25;;
36497;SDS011;22513;51.222;6.480;2022-08-04T20:24:12;7.68;;;3.47;;
36497;SDS011;22513;51.222;6.480;2022-08-04T20:26:38;8.77;;;3.20;;
36497;SDS011;22513;51.222;6.480;2022-08-04T20:29:03;9.90;;;3.03;;
36497;SDS011;22513;51.222;6.480;2022-08-04T20:31:29;6.50;;;2.72;;
36497;SDS011;22513;51.222;6.480;2022-08-04T20:33:54;5.43;;;3.05;;
36497;SDS011;22513;51.222;6.480;2022-08-04T20:36:20;5.55;;;2.60;;
36497;SDS011;22513;51.222;6.480;2022-08-04T20:38:46;7.50;;;3.40;;
36497;SDS011;22513;51.222;6.480;2022-08-04T20:41:12;8.70;;;3.00;;